Orbital elements of FENGYUN 1C DEB
| Launched | 9 May 1999 |
| Flight ended | – |
| Launch site | Taiyuan Space Center, PRC |
| Owner | People's Republic of China |
| NORAD ID | 31040 |
| Date fetched |
Epoch osculation |
Inc. [°] |
Ecc. | RA asc node [hr] |
Arg Peri. [°] |
Mean anom [°] |
Mean motion [rev/day] |
Abs. mag |
| Date fetched |
Epoch osculation |
Inc. [°] |
Ecc. | RA asc node [hr] |
Arg Peri. [°] |
Mean anom [°] |
Mean motion [rev/day] |
Abs. mag |
| 2026 May 05 17:57 | 2026 May 05 11:20:05 | 98.6704 | 0.00633 | 7.7886 | 140.8359 | 10.6605 | 14.17887 | – |
| 2026 May 04 17:57 | 2026 Apr 30 11:05:40 | 98.6703 | 0.00630 | 7.4624 | 155.1034 | 10.6605 | 14.17887 | – |
| 2026 May 03 17:57 | 2026 Apr 30 11:05:40 | 98.6703 | 0.00630 | 7.4624 | 155.1034 | 10.6605 | 14.17887 | – |
| 2026 May 02 17:57 | 2026 Apr 30 11:05:40 | 98.6703 | 0.00630 | 7.4624 | 155.1034 | 10.6605 | 14.17887 | – |
| 2026 May 01 17:56 | 2026 Apr 30 11:05:40 | 98.6703 | 0.00630 | 7.4624 | 155.1034 | 10.6605 | 14.17887 | – |
| 2026 Apr 30 17:56 | 2026 Apr 30 11:05:40 | 98.6703 | 0.00630 | 7.4624 | 155.1034 | 10.6605 | 14.17887 | – |
| 2026 Apr 29 17:57 | 2026 Apr 24 11:07:55 | 98.6701 | 0.00626 | 7.0719 | 172.3147 | 10.6605 | 14.17887 | – |
| 2026 Apr 28 17:56 | 2026 Apr 24 11:07:55 | 98.6701 | 0.00626 | 7.0719 | 172.3147 | 10.6605 | 14.17887 | – |
| 2026 Apr 27 17:58 | 2026 Apr 24 11:07:55 | 98.6701 | 0.00626 | 7.0719 | 172.3147 | 10.6605 | 14.17887 | – |
| 2026 Apr 26 17:58 | 2026 Apr 24 11:07:55 | 98.6701 | 0.00626 | 7.0719 | 172.3147 | 10.6605 | 14.17887 | – |
| 2026 Apr 25 17:58 | 2026 Apr 24 11:07:55 | 98.6701 | 0.00626 | 7.0719 | 172.3147 | 10.6605 | 14.17887 | – |
| 2026 Apr 24 17:59 | 2026 Apr 24 11:07:55 | 98.6701 | 0.00626 | 7.0719 | 172.3147 | 10.6605 | 14.17887 | – |
| 2026 Apr 23 17:57 | 2026 Apr 18 22:27:14 | 98.6702 | 0.00623 | 6.7120 | 188.2187 | 10.6605 | 14.17887 | – |
| 2026 Apr 22 17:57 | 2026 Apr 18 22:27:14 | 98.6702 | 0.00623 | 6.7120 | 188.2187 | 10.6605 | 14.17887 | – |
| 2026 Apr 21 17:57 | 2026 Apr 18 22:27:14 | 98.6702 | 0.00623 | 6.7120 | 188.2187 | 10.6605 | 14.17887 | – |
| 2026 Apr 20 17:57 | 2026 Apr 18 22:27:14 | 98.6702 | 0.00623 | 6.7120 | 188.2187 | 10.6605 | 14.17887 | – |
| 2026 Apr 19 17:58 | 2026 Apr 18 22:27:14 | 98.6702 | 0.00623 | 6.7120 | 188.2187 | 10.6605 | 14.17887 | – |
| 2026 Apr 18 17:56 | 2026 Apr 13 05:12:16 | 98.6699 | 0.00619 | 6.3396 | 204.8271 | 10.6605 | 14.17887 | – |
| 2026 Apr 16 17:57 | 2026 Apr 13 05:12:16 | 98.6699 | 0.00619 | 6.3396 | 204.8271 | 10.6605 | 14.17887 | – |
| 2026 Apr 14 17:57 | 2026 Apr 13 05:12:16 | 98.6699 | 0.00619 | 6.3396 | 204.8271 | 10.6605 | 14.17887 | – |
| 2026 Apr 13 17:57 | 2026 Apr 13 05:12:16 | 98.6699 | 0.00619 | 6.3396 | 204.8271 | 10.6605 | 14.17887 | – |
| 2026 Apr 12 17:57 | 2026 Apr 08 10:41:12 | 98.6697 | 0.00617 | 6.0290 | 218.6973 | 10.6605 | 14.17887 | – |
| 2026 Apr 11 17:57 | 2026 Apr 08 10:41:12 | 98.6697 | 0.00617 | 6.0290 | 218.6973 | 10.6605 | 14.17887 | – |
| 2026 Apr 10 17:58 | 2026 Apr 08 10:41:12 | 98.6697 | 0.00617 | 6.0290 | 218.6973 | 10.6605 | 14.17887 | – |
| 2026 Apr 09 18:01 | 2026 Apr 08 10:41:12 | 98.6697 | 0.00617 | 6.0290 | 218.6973 | 10.6605 | 14.17887 | – |
| 2026 Apr 08 17:57 | 2026 Apr 08 10:41:12 | 98.6697 | 0.00617 | 6.0290 | 218.6973 | 10.6605 | 14.17887 | – |